• Join FlightAware (Why Join?)
  • Login
  • US Flag 
03:38PM EDT


 

Airport Tracker/Info


-or-


 

Live Flight TrackerFlight Track Log ✈ AAL963 ✈ 19-Jun-2013 ✈ KDFW - SBGR / GRU

Flight Track Log - Related Links

Times and Time Zones

All times are in EDT time to prevent confusion due to time zone crossing. See the AAL963 flight status page for this flight to view local times or setup timezone preferences in your user account.

Time Position Orientation Groundspeed Altitude Reporting Facility
EDT Latitude Longitude Course Direction KTS MPH feet Rate Location/Type
09:26PM 32.8250 -97.0300 180° South 205 236 2,700  Level FlightAware
09:27PM 32.7890 -97.0300 180° South 227 261 3,600 1,680 Climbing FlightAware
09:27PM 32.7560 -97.0300 180° South 235 270 4,600 1,860 Climbing FlightAware
09:28PM 32.7240 -97.0300 180° South 247 284 5,500 2,040 Climbing FlightAware
09:28PM 32.6950 -97.0230 169° South 248 285 6,500 1,800 Climbing FlightAware
09:29PM 32.6640 -97.0070 157° South 263 303 7,200 1,920 Climbing FlightAware
09:29PM 32.6340 -96.9920 157° South 267 307 8,300 2,160 Climbing FlightAware
09:30PM 32.6020 -96.9760 157° South 274 315 9,200 1,800 Climbing FlightAware
09:30PM 32.5530 -96.9500 156° South 284 327 10,400 1,380 Climbing FlightAware
09:31PM 32.5010 -96.9250 158° South 312 359 11,100 1,320 Climbing FlightAware
09:32PM 32.4320 -96.8900 157° South 333 383 12,400 1,740 Climbing FlightAware
09:32PM 32.3750 -96.8610 157° South 341 392 13,700 1,560 Climbing FlightAware
09:33PM 32.3120 -96.8260 155° Southeast 359 413 14,600 1,560 Climbing FlightAware
09:34PM 32.2590 -96.7810 144° Southeast 363 418 15,900 1,680 Climbing FlightAware
09:34PM 32.1970 -96.7270 144° Southeast 374 430 17,000 1,560 Climbing FlightAware
09:35PM 32.1876 -96.7175 139° Southeast 373 429 17,300 1,800 Climbing FlightAware ADS-B
09:35PM 32.1349 -96.6588 137° Southeast 376 433 18,500 1,560 Climbing FlightAware ADS-B
09:36PM 32.0915 -96.6134 138° Southeast 383 441 19,300 1,500 Climbing FlightAware ADS-B
09:37PM 32.0328 -96.5518 138° Southeast 392 451 20,400 1,440 Climbing FlightAware ADS-B
09:37PM 31.9908 -96.5044 136° Southeast 402 463 21,100 1,500 Climbing FlightAware ADS-B
09:38PM 31.9502 -96.4553 134° Southeast 405 466 22,000 1,680 Climbing FlightAware ADS-B
09:38PM 31.9040 -96.3993 134° Southeast 405 466 23,000 1,500 Climbing FlightAware ADS-B
09:39PM 31.8512 -96.3349 134° Southeast 410 472 23,900 1,140 Climbing FlightAware ADS-B
09:39PM 31.8043 -96.2774 134° Southeast 420 483 24,500 1,080 Climbing FlightAware ADS-B
09:40PM 31.7557 -96.2198 135° Southeast 423 487 25,200 1,080 Climbing FlightAware ADS-B
09:41PM 31.6591 -96.1207 137° Southeast 441 507 26,300 840 Climbing FlightAware ADS-B
09:43PM 31.5181 -95.9698 138° Southeast 467 537 27,500 840 Climbing FlightAware ADS-B
09:43PM 31.4690 -95.9178 138° Southeast 471 542 28,000 960 Climbing FlightAware ADS-B
09:44PM 31.3720 -95.8131 137° Southeast 477 549 29,000 960 Climbing FlightAware ADS-B
09:45PM 31.3160 -95.7527 137° Southeast 480 552 29,600 960 Climbing FlightAware ADS-B
09:45PM 31.2641 -95.6968 137° Southeast 481 554 30,100 840 Climbing FlightAware ADS-B
09:46PM 31.2106 -95.6393 137° Southeast 485 558 30,500 720 Climbing FlightAware ADS-B
09:46PM 31.1605 -95.5856 137° Southeast 488 562 30,900 780 Climbing FlightAware ADS-B
09:47PM 31.0581 -95.4759 137° Southeast 493 567 31,700 720 Climbing FlightAware ADS-B
09:48PM 30.9729 -95.3851 138° Southeast 496 571 32,300 660 Climbing FlightAware ADS-B
09:48PM 30.9421 -95.3577 145° Southeast 496 571 32,500 720 Climbing FlightAware ADS-B
09:49PM 30.8189 -95.2799 152° Southeast 498 573 33,300 720 Climbing FlightAware ADS-B
09:51PM 30.6620 -95.1797 149° Southeast 499 574 34,200 780 Climbing FlightAware ADS-B
09:51PM 30.5771 -95.1019 140° Southeast 492 566 35,000 600 Climbing FlightAware ADS-B
09:52PM 30.5258 -95.0497 139° Southeast 490 564 35,000  Level FlightAware ADS-B
09:52PM 30.4747 -94.9976 139° Southeast 488 562 35,000  Level FlightAware ADS-B
09:53PM 30.4236 -94.9461 139° Southeast 488 562 35,000  Level FlightAware ADS-B
09:55PM 30.2683 -94.7904 139° Southeast 490 564 35,000  Level FlightAware ADS-B
09:58PM 29.9007 -94.4243 139° Southeast 496 571 35,000  Level FlightAware ADS-B
09:59PM 29.8478 -94.3718 139° Southeast 497 572 35,000  Level FlightAware ADS-B
10:00PM 29.7419 -94.2671 139° Southeast 497 572 35,000  Level FlightAware ADS-B
10:00PM 29.6889 -94.2150 139° Southeast 496 571 35,000  Level FlightAware ADS-B
10:01PM 29.6328 -94.1597 139° Southeast 496 571 35,000  Level FlightAware ADS-B
10:01PM 29.5804 -94.1081 139° Southeast 496 571 35,000  Level FlightAware ADS-B
10:02PM 29.5281 -94.0570 140° Southeast 495 570 35,000  Level FlightAware ADS-B
10:02PM 29.4750 -94.0051 140° Southeast 494 568 35,000  Level FlightAware ADS-B
10:03PM 29.4219 -93.9532 140° Southeast 494 568 35,000  Level FlightAware ADS-B
10:03PM 29.3692 -93.9018 140° Southeast 497 572 35,000  Level FlightAware ADS-B
10:04PM 29.3149 -93.8489 140° Southeast 498 573 35,000  Level FlightAware ADS-B
10:04PM 29.2604 -93.7960 140° Southeast 498 573 35,000  Level FlightAware ADS-B
10:05PM 29.2039 -93.7413 140° Southeast 499 574 35,000  Level FlightAware ADS-B
10:05PM 29.1504 -93.6894 140° Southeast 499 574 35,000  Level FlightAware ADS-B
10:06PM 29.0966 -93.6373 140° Southeast 500 575 35,000  Level FlightAware ADS-B
10:06PM 29.0434 -93.5858 140° Southeast 502 578 35,000  Level FlightAware ADS-B
10:07PM 28.9879 -93.5323 140° Southeast 501 577 35,000  Level FlightAware ADS-B
10:07PM 28.9324 -93.4789 140° Southeast 502 578 35,000  Level FlightAware ADS-B
10:08PM 28.8322 -93.3822 140° Southeast 499 574 35,000 -60 Level Houston Center
10:09PM 28.7272 -93.2803 140° Southeast 497 572 34,900  Descending Houston Center
10:10PM 28.6211 -93.1792 140° Southeast 498 573 35,000  Climbing Houston Center
10:11PM 28.5147 -93.0775 140° Southeast 500 575 34,900  Descending Houston Center
10:12PM 28.4064 -92.9769 141° Southeast 502 578 35,000  Climbing Houston Center
10:13PM 28.3006 -92.8717 139° Southeast 505 581 35,000  Level Houston Center
10:14PM 28.1903 -92.7739 142° Southeast 505 581 35,000 -420 Level Houston Center
10:15PM 28.0769 -92.6822 144° Southeast 502 578 34,200 -360 Descending Houston Center
10:21PM 27.4447 -92.1669 144° Southeast 505 581 33,000 -240 Descending FlightAware ADS-B
10:22PM 27.3789 -92.1122 144° Southeast 501 577 32,900  Descending Houston Center
10:23PM 27.2622 -92.0236 146° Southeast 504 580 33,000 60 Climbing Houston Center
10:25PM 27.0534 -91.8425 144° Southeast  Level FlightAware Approximate
10:32PM 26.2813 -91.2295 145° Southeast  Level FlightAware Approximate
10:33PM 26.1706 -91.1429 145° Southeast  Level FlightAware Approximate
10:34PM 26.0598 -91.0564 145° Southeast  Level FlightAware Approximate
10:35PM 25.9490 -90.9702 145° Southeast  Level FlightAware Approximate
10:36PM 25.8382 -90.8841 145° Southeast  Level FlightAware Approximate
10:37PM 25.7273 -90.7981 145° Southeast  Level FlightAware Approximate
10:38PM 25.6163 -90.7123 145° Southeast  Level FlightAware Approximate
10:39PM 25.5053 -90.6267 145° Southeast  Level FlightAware Approximate
10:40PM 25.3942 -90.5412 145° Southeast  Level FlightAware Approximate
10:41PM 25.2831 -90.4559 145° Southeast  Level FlightAware Approximate
10:42PM 25.1720 -90.3707 145° Southeast  Level FlightAware Approximate
10:43PM 25.0614 -90.2847 145° Southeast  Level FlightAware Approximate
10:44PM 24.9509 -90.1987 145° Southeast  Level FlightAware Approximate
10:45PM 24.8403 -90.1129 145° Southeast  Level FlightAware Approximate
10:46PM 24.7296 -90.0272 145° Southeast  Level FlightAware Approximate
10:47PM 24.6189 -89.9417 145° Southeast  Level FlightAware Approximate
10:48PM 24.5084 -89.8565 145° Southeast  Level FlightAware Approximate
10:49PM 24.4104 -89.7547 136° Southeast  Level FlightAware Approximate
10:50PM 24.3139 -89.6510 136° Southeast  Level FlightAware Approximate
10:51PM 24.2174 -89.5475 136° Southeast  Level FlightAware Approximate
10:52PM 24.1208 -89.4441 136° Southeast  Level FlightAware Approximate
10:53PM 24.0242 -89.3409 136° Southeast  Level FlightAware Approximate
10:54PM 23.9275 -89.2378 136° Southeast  Level FlightAware Approximate
10:55PM 23.8307 -89.1349 136° Southeast  Level FlightAware Approximate
10:55PM 23.4370 -89.0510 136° Southeast 514 592 35,000  Level FlightAware
10:56PM 23.7338 -89.0321 136° Southeast  Level FlightAware Approximate
10:56PM 23.3610 -88.9950 146° Southeast 512 589 35,000  Level FlightAware
10:57PM 23.2890 -88.9410 145° Southeast 513 590 35,000  Level FlightAware
10:57PM 23.2110 -88.8830 146° Southeast 514 592 35,000  Level FlightAware
10:58PM 23.1200 -88.8150 145° Southeast 514 592 35,000  Level FlightAware
10:59PM 22.9960 -88.7230 146° Southeast 510 587 35,000  Level FlightAware
11:00PM 22.9240 -88.6710 146° Southeast 509 586 35,000  Level FlightAware
11:00PM 22.8300 -88.6010 146° Southeast 508 585 35,000  Level FlightAware
11:01PM 22.7480 -88.5400 146° Southeast 507 583 35,000  Level FlightAware
11:02PM 22.6450 -88.4640 146° Southeast 507 583 35,000  Level FlightAware
11:03PM 22.5730 -88.4040 142° Southeast 507 583 35,000  Level FlightAware
11:03PM 22.4970 -88.3270 137° Southeast 509 586 35,000  Level FlightAware
11:04PM 22.4330 -88.2620 137° Southeast 509 586 35,000  Level FlightAware
11:05PM 22.3640 -88.1920 137° Southeast 510 587 35,000  Level FlightAware
11:06PM 22.2780 -88.1050 137° Southeast 510 587 35,000  Level FlightAware
11:06PM 22.2080 -88.0340 137° Southeast 509 586 35,000  Level FlightAware
11:07PM 22.1440 -87.9690 137° Southeast 509 586 35,000  Level FlightAware
11:08PM 22.0610 -87.8850 137° Southeast 508 585 35,000  Level FlightAware
11:08PM 21.9950 -87.8180 137° Southeast 507 583 35,000  Level FlightAware
11:09PM 21.9230 -87.7470 138° Southeast 508 585 35,000  Level FlightAware
11:10PM 21.8440 -87.6680 137° Southeast 510 587 35,000  Level FlightAware
11:10PM 21.7840 -87.6070 137° Southeast 511 588 35,000  Level FlightAware
11:11PM 21.7090 -87.5330 137° Southeast 511 588 35,000  Level FlightAware
11:12PM 21.6320 -87.4560 137° Southeast 511 588 35,000  Level FlightAware
11:12PM 21.5670 -87.3930 138° Southeast 511 588 35,000  Level FlightAware
11:13PM 21.4750 -87.3010 137° Southeast 512 589 35,000  Level FlightAware
11:14PM 21.4090 -87.2360 137° Southeast 511 588 35,000  Level FlightAware
11:15PM 21.3090 -87.1380 138° Southeast 511 588 35,000  Level FlightAware
11:16PM 21.2380 -87.0680 137° Southeast 512 589 35,000  Level FlightAware
11:16PM 21.1700 -87.0020 138° Southeast 512 589 35,000  Level FlightAware
11:17PM 21.0870 -86.9200 137° Southeast 513 590 35,000  Level FlightAware
11:18PM 21.0220 -86.8560 137° Southeast 513 590 35,000  Level FlightAware
11:18PM 20.9240 -86.7600 138° Southeast 513 590 35,000  Level FlightAware
11:19PM 20.8490 -86.6880 138° Southeast 513 590 35,000  Level FlightAware
11:20PM 20.7880 -86.6290 138° Southeast 513 590 35,000  Level FlightAware
11:21PM 20.7060 -86.5490 138° Southeast 513 590 35,000  Level FlightAware
11:21PM 20.6320 -86.4770 138° Southeast 515 593 35,000  Level FlightAware
11:22PM 20.5630 -86.4110 138° Southeast 516 594 35,000  Level FlightAware
11:23PM 20.4890 -86.3400 138° Southeast 516 594 35,000  Level FlightAware
11:24PM 20.3840 -86.2390 138° Southeast 517 595 35,000  Level FlightAware
11:24PM 20.3280 -86.1820 136° Southeast 517 595 35,000  Level FlightAware
11:25PM 20.1860 -86.0480 138° Southeast 520 598 35,000  Level FlightAware
11:26PM 20.1120 -85.9780 138° Southeast 519 597 35,000  Level FlightAware
11:27PM 20.0340 -85.9030 138° Southeast 520 598 35,000  Level FlightAware
11:28PM 19.9550 -85.8280 138° Southeast 522 601 35,000  Level FlightAware
11:28PM 19.8830 -85.7600 138° Southeast 522 601 35,000  Level FlightAware
11:29PM 19.8070 -85.6880 138° Southeast 522 601 35,000  Level FlightAware
11:30PM 19.7350 -85.6210 139° Southeast 524 603 35,000  Level FlightAware
11:30PM 19.6430 -85.5340 138° Southeast 524 603 35,000  Level FlightAware
11:31PM 19.5270 -85.4260 139° Southeast 524 603 35,000  Level FlightAware
11:32PM 19.4510 -85.3550 139° Southeast 524 603 35,000  Level FlightAware
11:33PM 19.3740 -85.2820 138° Southeast 523 602 35,000  Level FlightAware
11:34PM 19.3000 -85.2130 139° Southeast 523 602 35,000  Level FlightAware
11:35PM 19.2010 -85.1200 138° Southeast 523 602 35,000  Level FlightAware
11:35PM 19.1300 -85.0530 138° Southeast 523 602 35,000  Level FlightAware
11:36PM 19.0570 -84.9830 138° Southeast 523 602 35,000  Level FlightAware
11:37PM 18.9870 -84.9160 138° Southeast 523 602 35,000  Level FlightAware
11:37PM 18.9330 -84.8650 138° Southeast 523 602 35,000  Level FlightAware
11:38PM 18.8580 -84.7940 138° Southeast 523 602 35,000  Level FlightAware
11:39PM 18.8050 -84.7430 138° Southeast 523 602 35,000  Level FlightAware
11:40PM 18.7300 -84.6720 138° Southeast 523 602 35,000  Level FlightAware
11:40PM 18.6730 -84.6180 138° Southeast 523 602 35,000  Level FlightAware
11:41PM 18.5800 -84.5290 138° Southeast 523 602 35,000  Level FlightAware
11:42PM 18.5220 -84.4740 138° Southeast 523 602 35,000  Level FlightAware
11:43PM 18.4650 -84.4210 139° Southeast 523 602 35,000  Level FlightAware
11:43PM 18.3940 -84.3520 137° Southeast 523 602 35,000  Level FlightAware
11:44PM 18.3370 -84.2990 139° Southeast 523 602 35,000  Level FlightAware
11:47PM 18.0854 -84.0532 137° Southeast  Level Estimated
11:48PM 17.9860 -83.9563 137° Southeast  Level Estimated
11:49PM 17.8866 -83.8596 137° Southeast  Level Estimated
11:50PM 17.7871 -83.7630 137° Southeast  Level Estimated
11:51PM 17.6876 -83.6665 137° Southeast  Level Estimated
11:52PM 17.5880 -83.5701 137° Southeast  Level Estimated
11:53PM 17.4883 -83.4738 137° Southeast  Level Estimated
11:54PM 17.3887 -83.3776 137° Southeast  Level Estimated
11:55PM 17.2889 -83.2815 137° Southeast  Level Estimated
11:56PM 17.1892 -83.1855 137° Southeast  Level Estimated
11:57PM 17.0894 -83.0896 137° Southeast  Level Estimated
11:58PM 16.9895 -82.9938 137° Southeast  Level Estimated
11:59PM 16.8896 -82.8981 137° Southeast  Level Estimated
12:00AM 16.7897 -82.8026 138° Southeast  Level Estimated
12:01AM 16.6897 -82.7071 138° Southeast  Level Estimated
12:02AM 16.5896 -82.6117 138° Southeast  Level Estimated
12:03AM 16.4896 -82.5164 138° Southeast  Level Estimated
12:04AM 16.3894 -82.4212 138° Southeast  Level Estimated
12:05AM 16.2895 -82.3263 138° Southeast  Level Estimated
12:06AM 16.1894 -82.2315 138° Southeast  Level Estimated
12:07AM 16.0894 -82.1368 138° Southeast  Level Estimated
12:08AM 15.9893 -82.0422 138° Southeast  Level Estimated
12:09AM 15.8891 -81.9476 138° Southeast  Level Estimated
12:10AM 15.7889 -81.8532 138° Southeast  Level Estimated
12:11AM 15.6887 -81.7589 138° Southeast  Level Estimated
12:12AM 15.5884 -81.6646 138° Southeast  Level Estimated
12:13AM 15.4881 -81.5705 138° Southeast  Level Estimated
12:14AM 15.3878 -81.4764 138° Southeast  Level Estimated
12:15AM 15.2874 -81.3824 138° Southeast  Level Estimated
12:16AM 15.1869 -81.2886 138° Southeast  Level Estimated
12:17AM 15.0865 -81.1948 138° Southeast  Level Estimated
12:18AM 14.9860 -81.1011 138° Southeast  Level Estimated
12:19AM 14.8854 -81.0075 138° Southeast  Level Estimated
12:20AM 14.7848 -80.9139 138° Southeast  Level Estimated
12:21AM 14.6842 -80.8205 138° Southeast  Level Estimated
12:22AM 14.5836 -80.7271 138° Southeast  Level Estimated
12:23AM 14.4829 -80.6339 138° Southeast  Level Estimated
12:24AM 14.3821 -80.5407 138° Southeast  Level Estimated
12:25AM 14.2814 -80.4476 138° Southeast  Level Estimated
12:26AM 14.1805 -80.3546 138° Southeast  Level Estimated
12:27AM 14.0797 -80.2616 138° Southeast  Level Estimated
12:28AM 13.9788 -80.1688 138° Southeast  Level Estimated
12:29AM 13.8779 -80.0760 138° Southeast  Level Estimated
12:30AM 13.7770 -79.9833 138° Southeast  Level Estimated
12:31AM 13.6760 -79.8907 138° Southeast  Level Estimated
12:32AM 13.5750 -79.7982 138° Southeast  Level Estimated
12:33AM 13.4739 -79.7057 138° Southeast  Level Estimated
12:34AM 13.3729 -79.6133 138° Southeast  Level Estimated
12:35AM 13.2717 -79.5210 138° Southeast  Level Estimated
12:36AM 13.1706 -79.4288 138° Southeast  Level Estimated
12:37AM 13.0694 -79.3367 138° Southeast  Level Estimated
12:38AM 12.9682 -79.2446 138° Southeast  Level Estimated
12:39AM 12.8669 -79.1526 138° Southeast  Level Estimated
12:40AM 12.7657 -79.0607 138° Southeast  Level Estimated
12:41AM 12.6643 -78.9688 139° Southeast  Level Estimated
12:42AM 12.5630 -78.8771 139° Southeast  Level Estimated
12:43AM 12.4616 -78.7853 139° Southeast  Level Estimated
12:44AM 12.3602 -78.6937 139° Southeast  Level Estimated
12:45AM 12.2588 -78.6022 139° Southeast  Level Estimated
12:46AM 12.1573 -78.5107 139° Southeast  Level Estimated
12:47AM 12.0558 -78.4193 139° Southeast  Level Estimated
12:48AM 11.9543 -78.3279 139° Southeast  Level Estimated
12:49AM 11.8527 -78.2366 139° Southeast  Level Estimated
12:50AM 11.7512 -78.1454 139° Southeast  Level Estimated
12:51AM 11.6496 -78.0543 139° Southeast  Level Estimated
12:52AM 11.5479 -77.9632 139° Southeast  Level Estimated
12:53AM 11.4462 -77.8722 139° Southeast  Level Estimated
12:54AM 11.3444 -77.7811 139° Southeast  Level Estimated
12:55AM 11.2425 -77.6900 139° Southeast  Level Estimated
12:56AM 11.1405 -77.5990 139° Southeast  Level Estimated
12:57AM 11.0386 -77.5081 139° Southeast  Level Estimated
12:58AM 10.9366 -77.4173 139° Southeast  Level Estimated
12:59AM 10.8345 -77.3264 139° Southeast  Level Estimated
01:00AM 10.7325 -77.2357 139° Southeast  Level Estimated
01:01AM 10.6304 -77.1451 139° Southeast  Level Estimated
01:02AM 10.5283 -77.0544 139° Southeast  Level Estimated
01:03AM 10.4262 -76.9639 139° Southeast  Level Estimated
01:04AM 10.3240 -76.8734 139° Southeast  Level Estimated
01:05AM 10.2219 -76.7830 139° Southeast  Level Estimated
01:06AM 10.1197 -76.6926 139° Southeast  Level Estimated
01:07AM 10.0174 -76.6023 139° Southeast  Level Estimated
01:08AM 9.9152 -76.5120 139° Southeast  Level Estimated
01:09AM 9.8129 -76.4218 139° Southeast  Level Estimated
01:10AM 9.7106 -76.3317 139° Southeast  Level Estimated
01:11AM 9.6083 -76.2416 139° Southeast  Level Estimated
01:12AM 9.5060 -76.1515 139° Southeast  Level Estimated
01:13AM 9.4036 -76.0615 139° Southeast  Level Estimated
01:14AM 9.3012 -75.9716 139° Southeast  Level Estimated
01:15AM 9.1988 -75.8817 139° Southeast  Level Estimated
01:16AM 9.0964 -75.7919 139° Southeast  Level Estimated
01:17AM 8.9939 -75.7021 139° Southeast  Level Estimated
01:18AM 8.8914 -75.6124 139° Southeast  Level Estimated
01:19AM 8.7889 -75.5227 139° Southeast  Level Estimated
01:20AM 8.6864 -75.4331 139° Southeast  Level Estimated
01:21AM 8.5839 -75.3435 139° Southeast  Level Estimated
01:22AM 8.4813 -75.2540 139° Southeast  Level Estimated
01:23AM 8.3787 -75.1645 139° Southeast  Level Estimated
01:24AM 8.2761 -75.0751 139° Southeast  Level Estimated
01:25AM 8.1735 -74.9857 139° Southeast  Level Estimated
01:26AM 8.0709 -74.8963 139° Southeast  Level Estimated
01:27AM 7.9682 -74.8070 139° Southeast  Level Estimated
01:28AM 7.8655 -74.7178 139° Southeast  Level Estimated
01:29AM 7.7628 -74.6286 139° Southeast  Level Estimated
01:30AM 7.6601 -74.5394 139° Southeast  Level Estimated
01:30AM 6.8850 -73.7270 139° Southeast 490 564 37,000  Level FlightAware
01:31AM 7.5574 -74.4503 139° Southeast  Level Estimated
01:31AM 6.8010 -73.6820 152° Southeast 489 563 37,000  Level FlightAware
01:32AM 6.7170 -73.6370 152° Southeast 490 564 37,000  Level FlightAware
01:33AM 6.6330 -73.5920 152° Southeast 492 566 37,000  Level FlightAware
01:33AM 6.5560 -73.5500 152° Southeast 494 568 37,000  Level FlightAware
01:34AM 6.4620 -73.4990 152° Southeast 494 568 37,000  Level FlightAware
01:35AM 6.3750 -73.4520 152° Southeast 495 570 37,000  Level FlightAware
01:36AM 6.2620 -73.3910 152° Southeast 495 570 37,000  Level FlightAware
01:36AM 6.1980 -73.3560 151° Southeast 494 568 37,000  Level FlightAware
01:37AM 6.1060 -73.3060 152° Southeast 494 568 37,000  Level FlightAware
01:38AM 6.0450 -73.2720 151° Southeast 494 568 37,000  Level FlightAware
01:39AM 5.9670 -73.2280 151° Southeast 494 568 37,000  Level FlightAware
01:41AM 5.7772 -73.0641 139° Southeast  Level Estimated
01:42AM 5.6746 -72.9755 139° Southeast  Level Estimated
01:43AM 5.5720 -72.8870 139° Southeast  Level Estimated
01:44AM 5.4694 -72.7985 139° Southeast  Level Estimated
01:44AM 5.4520 -72.9540 139° Southeast 493 567 37,000  Level FlightAware
01:45AM 5.4170 -72.9350 152° Southeast 494 568 37,000  Level FlightAware
01:47AM 5.2790 -72.8610 152° Southeast 493 567 37,000  Level FlightAware
01:47AM 5.1510 -72.7910 151° Southeast 493 567 37,000  Level FlightAware
01:48AM 5.0900 -72.7570 151° Southeast 493 567 37,000  Level FlightAware
01:49AM 5.0090 -72.7120 151° Southeast 493 567 37,000  Level FlightAware
01:50AM 4.9340 -72.6710 151° Southeast 493 567 37,000  Level FlightAware
01:51AM 4.8270 -72.6110 151° Southeast 493 567 37,000  Level FlightAware
01:52AM 4.6830 -72.5310 151° Southeast 493 567 37,000  Level FlightAware
01:53AM 4.6000 -72.4850 151° Southeast 493 567 37,000  Level FlightAware
01:54AM 4.5220 -72.4410 151° Southeast 493 567 37,000  Level FlightAware
01:54AM 4.4610 -72.4070 151° Southeast 493 567 37,000  Level FlightAware
01:55AM 4.3540 -72.3480 151° Southeast 493 567 37,000  Level FlightAware
01:56AM 4.2710 -72.3020 151° Southeast 493 567 37,000  Level FlightAware
01:57AM 4.2080 -72.2670 151° Southeast 493 567 37,000  Level FlightAware
01:59AM 4.0212 -72.1035 139° Southeast  Level Estimated
02:00AM 3.9193 -72.0144 139° Southeast  Level Estimated
02:01AM 3.8174 -71.9252 139° Southeast  Level Estimated
02:02AM 3.7155 -71.8361 139° Southeast  Level Estimated
02:03AM 3.6136 -71.7470 139° Southeast  Level Estimated
02:04AM 3.5117 -71.6580 139° Southeast  Level Estimated
02:05AM 3.4098 -71.5689 139° Southeast  Level Estimated
02:06AM 3.3078 -71.4799 139° Southeast  Level Estimated
02:07AM 3.2059 -71.3909 139° Southeast  Level Estimated
02:08AM 3.1039 -71.3019 139° Southeast  Level Estimated
02:09AM 3.0020 -71.2129 139° Southeast  Level Estimated
02:10AM 2.9000 -71.1239 139° Southeast  Level Estimated
02:11AM 2.7980 -71.0350 139° Southeast  Level Estimated
02:12AM 2.6960 -70.9461 139° Southeast  Level Estimated
02:13AM 2.5940 -70.8571 139° Southeast  Level Estimated
02:14AM 2.4920 -70.7682 139° Southeast  Level Estimated
02:15AM 2.3900 -70.6794 139° Southeast  Level Estimated
02:16AM 2.2880 -70.5905 139° Southeast  Level Estimated
02:17AM 2.1860 -70.5016 139° Southeast  Level Estimated
02:18AM 2.0840 -70.4128 139° Southeast  Level Estimated
02:19AM 1.9819 -70.3239 139° Southeast  Level Estimated
02:20AM 1.8799 -70.2351 139° Southeast  Level Estimated
02:21AM 1.7781 -70.1465 139° Southeast  Level Estimated
02:22AM 1.6762 -70.0578 139° Southeast  Level Estimated
02:23AM 1.5743 -69.9692 139° Southeast  Level Estimated
02:24AM 1.4725 -69.8806 139° Southeast  Level Estimated
02:25AM 1.3706 -69.7919 139° Southeast  Level Estimated
02:26AM 1.2687 -69.7033 139° Southeast  Level Estimated
02:27AM 1.1669 -69.6147 139° Southeast  Level Estimated
02:28AM 1.0650 -69.5261 139° Southeast  Level Estimated
02:29AM 0.9631 -69.4375 139° Southeast  Level Estimated
02:30AM 0.8612 -69.3490 139° Southeast  Level Estimated
02:31AM 0.7594 -69.2604 139° Southeast  Level Estimated
02:32AM 0.6575 -69.1718 139° Southeast  Level Estimated
02:33AM 0.5556 -69.0832 139° Southeast  Level Estimated
02:34AM 0.4537 -68.9947 139° Southeast  Level Estimated
02:35AM 0.3518 -68.9061 139° Southeast  Level Estimated
02:36AM 0.2499 -68.8175 139° Southeast  Level Estimated
02:37AM 0.1480 -68.7290 139° Southeast  Level Estimated
02:38AM 0.0462 -68.6404 139° Southeast  Level Estimated
02:39AM -0.0557 -68.5518 139° Southeast  Level Estimated
02:40AM -0.1576 -68.4633 139° Southeast  Level Estimated
02:41AM -0.2595 -68.3747 139° Southeast  Level Estimated
02:42AM -0.3614 -68.2861 139° Southeast  Level Estimated
02:43AM -0.4633 -68.1976 139° Southeast  Level Estimated
02:44AM -0.5652 -68.1090 139° Southeast  Level Estimated
02:45AM -0.6671 -68.0204 139° Southeast  Level Estimated
02:46AM -0.7689 -67.9318 139° Southeast  Level Estimated
02:47AM -0.8708 -67.8433 139° Southeast  Level Estimated
02:48AM -0.9727 -67.7547 139° Southeast  Level Estimated
02:49AM -1.0746 -67.6661 139° Southeast  Level Estimated
02:50AM -1.1765 -67.5775 139° Southeast  Level Estimated
02:51AM -1.2783 -67.4889 139° Southeast  Level Estimated
02:52AM -1.3802 -67.4003 139° Southeast  Level Estimated
02:53AM -1.4820 -67.3117 139° Southeast  Level Estimated
02:54AM -1.5839 -67.2230 139° Southeast  Level Estimated
02:55AM -1.6858 -67.1344 139° Southeast  Level Estimated
02:56AM -1.7876 -67.0457 139° Southeast  Level Estimated
02:57AM -1.8895 -66.9571 139° Southeast  Level Estimated
02:58AM -1.9913 -66.8684 139° Southeast  Level Estimated
02:59AM -2.0931 -66.7797 139° Southeast  Level Estimated
03:00AM -2.1950 -66.6910 139° Southeast  Level Estimated
03:01AM -2.2968 -66.6023 139° Southeast  Level Estimated
03:02AM -2.3986 -66.5136 139° Southeast  Level Estimated
03:03AM -2.5005 -66.4249 139° Southeast  Level Estimated
03:04AM -2.6023 -66.3362 139° Southeast  Level Estimated
03:05AM -2.7041 -66.2474 139° Southeast  Level Estimated
03:06AM -2.8059 -66.1587 139° Southeast  Level Estimated
03:07AM -2.9077 -66.0699 139° Southeast  Level Estimated
03:08AM -3.0095 -65.9811 139° Southeast  Level Estimated
03:09AM -3.1112 -65.8923 139° Southeast  Level Estimated
03:10AM -3.2130 -65.8034 139° Southeast  Level Estimated
03:11AM -3.3148 -65.7146 139° Southeast  Level Estimated
03:12AM -3.4165 -65.6257 139° Southeast  Level Estimated
03:13AM -3.5183 -65.5368 139° Southeast  Level Estimated
03:14AM -3.6200 -65.4479 139° Southeast  Level Estimated
03:15AM -3.7218 -65.3590 139° Southeast  Level Estimated
03:16AM -3.8235 -65.2700 139° Southeast  Level Estimated
03:17AM -3.9252 -65.1811 139° Southeast  Level Estimated
03:18AM -4.0269 -65.0921 139° Southeast  Level Estimated
03:19AM -4.1286 -65.0031 139° Southeast  Level Estimated
03:20AM -4.2302 -64.9140 139° Southeast  Level Estimated
03:21AM -4.3319 -64.8250 139° Southeast  Level Estimated
03:22AM -4.4336 -64.7359 139° Southeast  Level Estimated
03:23AM -4.5352 -64.6468 139° Southeast  Level Estimated
03:24AM -4.6369 -64.5576 139° Southeast  Level Estimated
03:25AM -4.7385 -64.4685 139° Southeast  Level Estimated
03:26AM -4.8401 -64.3793 139° Southeast  Level Estimated
03:27AM -4.9417 -64.2901 139° Southeast  Level Estimated
03:28AM -5.0433 -64.2008 139° Southeast  Level Estimated
03:29AM -5.1449 -64.1116 139° Southeast  Level Estimated
03:30AM -5.2465 -64.0223 139° Southeast  Level Estimated
03:31AM -5.3480 -63.9329 139° Southeast  Level Estimated
03:32AM -5.4496 -63.8436 139° Southeast  Level Estimated
03:33AM -5.5511 -63.7542 139° Southeast  Level Estimated
03:34AM -5.6526 -63.6648 139° Southeast  Level Estimated
03:35AM -5.7541 -63.5753 139° Southeast  Level Estimated
03:36AM -5.8556 -63.4859 139° Southeast  Level Estimated
03:37AM -5.9571 -63.3964 139° Southeast  Level Estimated
03:38AM -6.0585 -63.3068 139° Southeast  Level Estimated
03:39AM -6.1600 -63.2172 139° Southeast  Level Estimated
03:40AM -6.2614 -63.1276 139° Southeast  Level Estimated
03:41AM -6.3629 -63.0380 139° Southeast  Level Estimated
03:42AM -6.4643 -62.9483 139° Southeast  Level Estimated
03:43AM -6.5656 -62.8586 139° Southeast  Level Estimated
03:44AM -6.6670 -62.7688 139° Southeast  Level Estimated
03:45AM -6.7684 -62.6790 139° Southeast  Level Estimated
03:46AM -6.8697 -62.5892 139° Southeast  Level Estimated
03:47AM -6.9710 -62.4993 139° Southeast  Level Estimated
03:48AM -7.0723 -62.4094 139° Southeast  Level Estimated
03:49AM -7.1736 -62.3195 139° Southeast  Level Estimated
03:50AM -7.2749 -62.2295 139° Southeast  Level Estimated
03:51AM -7.3761 -62.1394 139° Southeast  Level Estimated
03:52AM -7.4774 -62.0494 139° Southeast  Level Estimated
03:53AM -7.5786 -61.9593 139° Southeast  Level Estimated
03:54AM -7.6798 -61.8691 139° Southeast  Level Estimated
03:55AM -7.7810 -61.7789 139° Southeast  Level Estimated
03:56AM -7.8819 -61.6888 139° Southeast  Level Estimated
03:57AM -7.9829 -61.5987 139° Southeast  Level Estimated
03:58AM -8.0838 -61.5085 139° Southeast  Level Estimated
03:59AM -8.1847 -61.4183 139° Southeast  Level Estimated
04:00AM -8.2857 -61.3281 138° Southeast  Level Estimated
04:01AM -8.3865 -61.2378 138° Southeast  Level Estimated
04:02AM -8.4874 -61.1474 138° Southeast  Level Estimated
04:03AM -8.5882 -61.0570 138° Southeast  Level Estimated
04:04AM -8.6890 -60.9666 138° Southeast  Level Estimated
04:05AM -8.7898 -60.8761 138° Southeast  Level Estimated
04:06AM -8.8906 -60.7856 138° Southeast  Level Estimated
04:07AM -8.9913 -60.6950 138° Southeast  Level Estimated
04:08AM -9.0921 -60.6043 138° Southeast  Level Estimated
04:09AM -9.1928 -60.5136 138° Southeast  Level Estimated
04:10AM -9.2935 -60.4229 138° Southeast  Level Estimated
04:11AM -9.3941 -60.3321 138° Southeast  Level Estimated
04:12AM -9.4948 -60.2413 138° Southeast  Level Estimated
04:13AM -9.5954 -60.1504 138° Southeast  Level Estimated
04:14AM -9.6959 -60.0594 138° Southeast  Level Estimated
04:15AM -9.7965 -59.9684 138° Southeast  Level Estimated
04:16AM -9.8970 -59.8773 138° Southeast  Level Estimated
04:17AM -9.9976 -59.7862 138° Southeast  Level Estimated
04:18AM -10.0981 -59.6950 138° Southeast  Level Estimated
04:19AM -10.1985 -59.6038 138° Southeast  Level Estimated
04:20AM -10.2990 -59.5125 138° Southeast  Level Estimated
04:21AM -10.3994 -59.4211 138° Southeast  Level Estimated
04:22AM -10.4998 -59.3297 138° Southeast  Level Estimated
04:23AM -10.6001 -59.2383 138° Southeast  Level Estimated
04:24AM -10.7005 -59.1467 138° Southeast  Level Estimated
04:25AM -10.8008 -59.0551 138° Southeast  Level Estimated
04:26AM -10.9011 -58.9635 138° Southeast  Level Estimated
04:27AM -11.0013 -58.8718 138° Southeast  Level Estimated
04:28AM -11.1016 -58.7800 138° Southeast  Level Estimated
04:29AM -11.2016 -58.6883 138° Southeast  Level Estimated
04:30AM -11.3016 -58.5966 138° Southeast  Level Estimated
04:31AM -11.4015 -58.5048 138° Southeast  Level Estimated
04:32AM -11.5014 -58.4129 138° Southeast  Level Estimated
04:33AM -11.6014 -58.3210 138° Southeast  Level Estimated
04:34AM -11.7012 -58.2290 138° Southeast  Level Estimated
04:35AM -11.8011 -58.1369 138° Southeast  Level Estimated
04:36AM -11.9009 -58.0448 138° Southeast  Level Estimated
04:37AM -12.0007 -57.9526 138° Southeast  Level Estimated
04:38AM -12.1005 -57.8604 138° Southeast  Level Estimated
04:39AM -12.2002 -57.7680 138° Southeast  Level Estimated
04:40AM -12.2999 -57.6756 138° Southeast  Level Estimated
04:41AM -12.3996 -57.5831 138° Southeast  Level Estimated
04:42AM -12.4992 -57.4906 138° Southeast  Level Estimated
04:43AM -12.5988 -57.3980 138° Southeast  Level Estimated
04:44AM -12.6984 -57.3053 138° Southeast  Level Estimated
04:45AM -12.7979 -57.2125 138° Southeast  Level Estimated
04:46AM -12.8974 -57.1197 138° Southeast  Level Estimated
04:47AM -12.9969 -57.0268 138° Southeast  Level Estimated
04:48AM -13.0963 -56.9338 138° Southeast  Level Estimated
04:49AM -13.1957 -56.8408 138° Southeast  Level Estimated
04:50AM -13.2951 -56.7476 138° Southeast  Level Estimated
04:51AM -13.3944 -56.6544 138° Southeast  Level Estimated
04:52AM -13.4937 -56.5611 138° Southeast  Level Estimated
04:53AM -13.5930 -56.4678 138° Southeast  Level Estimated
04:54AM -13.6923 -56.3743 138° Southeast  Level Estimated
04:55AM -13.7914 -56.2808 138° Southeast  Level Estimated
04:56AM -13.8906 -56.1872 138° Southeast  Level Estimated
04:57AM -13.9897 -56.0935 137° Southeast  Level Estimated
04:58AM -14.0888 -55.9998 137° Southeast  Level Estimated
04:59AM -14.1879 -55.9059 137° Southeast  Level Estimated
05:00AM -14.2869 -55.8120 137° Southeast  Level Estimated
05:01AM -14.3859 -55.7180 137° Southeast  Level Estimated
05:02AM -14.4848 -55.6239 137° Southeast  Level Estimated
05:03AM -14.5837 -55.5297 137° Southeast  Level Estimated
05:04AM -14.6826 -55.4355 137° Southeast  Level Estimated
05:05AM -14.7815 -55.3411 137° Southeast  Level Estimated
05:06AM -14.8802 -55.2467 137° Southeast  Level Estimated
05:07AM -14.9790 -55.1522 137° Southeast  Level Estimated
05:08AM -15.0777 -55.0576 137° Southeast  Level Estimated
05:09AM -15.1764 -54.9629 137° Southeast  Level Estimated
05:10AM -15.2750 -54.8681 137° Southeast  Level Estimated
05:11AM -15.3736 -54.7733 137° Southeast  Level Estimated
05:12AM -15.4722 -54.6783 137° Southeast  Level Estimated
05:13AM -15.5707 -54.5832 137° Southeast  Level Estimated
05:14AM -15.6692 -54.4881 137° Southeast  Level Estimated
05:15AM -15.7676 -54.3929 137° Southeast  Level Estimated
05:16AM -15.8660 -54.2975 137° Southeast  Level Estimated
05:17AM -15.9644 -54.2021 137° Southeast  Level Estimated
05:18AM -16.0627 -54.1066 137° Southeast  Level Estimated
05:19AM -16.1610 -54.0110 137° Southeast  Level Estimated
05:20AM -16.2592 -53.9153 137° Southeast  Level Estimated
05:21AM -16.3574 -53.8195 137° Southeast  Level Estimated
05:22AM -16.4555 -53.7236 137° Southeast  Level Estimated
05:23AM -16.5536 -53.6276 137° Southeast  Level Estimated
05:24AM -16.6517 -53.5315 137° Southeast  Level Estimated
05:25AM -16.7497 -53.4353 137° Southeast  Level Estimated
05:26AM -16.8476 -53.3391 137° Southeast  Level Estimated
05:27AM -16.9456 -53.2427 137° Southeast  Level Estimated
05:28AM -17.0434 -53.1462 137° Southeast  Level Estimated
05:29AM -17.1413 -53.0496 137° Southeast  Level Estimated
05:30AM -17.2390 -52.9529 137° Southeast  Level Estimated
05:31AM -17.3368 -52.8561 137° Southeast  Level Estimated
05:32AM -17.4345 -52.7592 137° Southeast  Level Estimated
05:33AM -17.5321 -52.6622 137° Southeast  Level Estimated
05:34AM -17.6297 -52.5651 137° Southeast  Level Estimated
05:35AM -17.7272 -52.4679 136° Southeast  Level Estimated
05:36AM -17.8247 -52.3706 136° Southeast  Level Estimated
05:37AM -17.9222 -52.2732 136° Southeast  Level Estimated
05:38AM -18.0196 -52.1756 136° Southeast  Level Estimated
05:39AM -18.1169 -52.0780 136° Southeast  Level Estimated
05:40AM -18.2142 -51.9803 136° Southeast  Level Estimated
05:41AM -18.3115 -51.8824 136° Southeast  Level Estimated
05:41AM -18.8000 -50.8880 136° Southeast 491 565 39,000  Level FlightAware
05:41AM -18.8400 -50.8450 135° Southeast 491 565 39,000  Level FlightAware
05:42AM -18.9150 -50.7640 134° Southeast 492 566 39,000  Level FlightAware
05:43AM -18.9550 -50.7190 133° Southeast 492 566 39,000  Level FlightAware
05:43AM -19.0420 -50.6250 134° Southeast 492 566 39,000  Level FlightAware
05:44AM -19.1110 -50.5500 134° Southeast 492 566 39,000  Level FlightAware
05:45AM -19.1780 -50.4770 134° Southeast 493 567 39,000  Level FlightAware
05:45AM -19.2420 -50.4070 134° Southeast 493 567 39,000  Level FlightAware
05:46AM -19.3050 -50.3370 134° Southeast 494 568 39,000  Level FlightAware
05:47AM -19.3770 -50.2580 134° Southeast 495 570 39,000  Level FlightAware
05:48AM -19.4410 -50.1870 134° Southeast 497 572 39,000  Level FlightAware
05:48AM -19.5080 -50.1140 134° Southeast 497 572 39,000  Level FlightAware
05:49AM -19.5750 -50.0400 134° Southeast 498 573 39,000  Level FlightAware
05:50AM -19.6460 -49.9610 134° Southeast 498 573 39,000  Level FlightAware
05:50AM -19.7040 -49.8980 134° Southeast 498 573 39,000  Level FlightAware
05:51AM -19.7770 -49.8190 134° Southeast 499 574 39,000  Level FlightAware
05:52AM -19.8470 -49.7430 134° Southeast 499 574 39,000  Level FlightAware
05:53AM -19.9140 -49.6700 134° Southeast 500 575 39,000  Level FlightAware
05:53AM -19.9810 -49.5960 134° Southeast 501 577 39,000  Level FlightAware
05:54AM -20.0510 -49.5190 134° Southeast 501 577 39,000  Level FlightAware
05:55AM -20.1150 -49.4480 134° Southeast 501 577 39,000  Level FlightAware
05:55AM -20.1870 -49.3690 134° Southeast 500 575 39,000  Level FlightAware
05:56AM -20.2480 -49.3020 134° Southeast 501 577 39,000  Level FlightAware
05:57AM -20.3190 -49.2230 134° Southeast 501 577 39,000  Level FlightAware
05:57AM -20.3870 -49.1480 134° Southeast 501 577 39,000  Level FlightAware
05:58AM -20.4580 -49.0700 134° Southeast 501 577 39,000  Level FlightAware
05:59AM -20.5210 -49.0000 134° Southeast 501 577 39,000  Level FlightAware
06:00AM -20.5930 -48.9200 134° Southeast 502 578 39,000  Level FlightAware
06:00AM -20.6570 -48.8490 134° Southeast 502 578 39,000  Level FlightAware
06:01AM -20.7250 -48.7730 134° Southeast 502 578 39,000  Level FlightAware
06:02AM -20.7880 -48.7030 134° Southeast 502 578 39,000  Level FlightAware
06:02AM -20.8610 -48.6200 133° Southeast 504 580 39,000  Level FlightAware
06:03AM -20.9210 -48.5530 134° Southeast 504 580 39,000  Level FlightAware
06:04AM -20.9950 -48.4700 134° Southeast 505 581 39,000  Level FlightAware
06:04AM -21.0510 -48.4070 134° Southeast 505 581 39,000  Level FlightAware
06:05AM -21.1530 -48.2920 134° Southeast 507 583 39,000  Level FlightAware
06:06AM -21.2210 -48.2140 133° Southeast 507 583 39,000  Level FlightAware
06:07AM -21.2870 -48.1400 134° Southeast 507 583 39,000  Level FlightAware
06:07AM -21.3610 -48.0670 137° Southeast 497 572 39,000  Level FlightAware
06:08AM -21.4380 -48.0060 144° Southeast 493 567 39,000  Level FlightAware
06:09AM -21.5090 -47.9520 145° Southeast 493 567 39,000  Level FlightAware
06:10AM -21.5960 -47.8830 144° Southeast 493 567 39,000  Level FlightAware
06:10AM -21.6780 -47.8170 143° Southeast 492 566 39,000  Level FlightAware
06:11AM -21.7030 -47.7970 143° Southeast 492 566 39,000 -600 Level FlightAware
06:12AM -21.8770 -47.6580 143° Southeast 489 563 38,100 -1,980 Descending FlightAware
06:13AM -21.9510 -47.5990 144° Southeast 498 573 36,000 -3,420 Descending FlightAware
06:13AM -22.0260 -47.5390 143° Southeast 502 578 33,600 -3,780 Descending FlightAware
06:14AM -22.1060 -47.4750 143° Southeast 511 588 30,900 -2,820 Descending FlightAware
06:15AM -22.1990 -47.4010 144° Southeast 488 562 29,300 -2,460 Descending FlightAware
06:16AM -22.2770 -47.3380 143° Southeast 479 551 27,100 -2,820 Descending FlightAware
06:16AM -22.3480 -47.2820 144° Southeast 463 533 25,400 -2,460 Descending FlightAware
06:17AM -22.4230 -47.2210 143° Southeast 445 512 23,700 -2,160 Descending FlightAware
06:18AM -22.4880 -47.1700 144° Southeast 428 493 22,400 -1,980 Descending FlightAware
06:18AM -22.5530 -47.1170 143° Southeast 428 493 21,000 -2,100 Descending FlightAware
06:19AM -22.6350 -47.0730 154° Southeast 429 494 19,400 -2,100 Descending FlightAware
06:21AM -22.7870 -47.0100 159° South 414 476 16,600 -2,040 Descending FlightAware
06:21AM -22.8630 -46.9780 159° South 406 467 15,200 -2,100 Descending FlightAware
06:22AM -22.9330 -46.9480 158° South 400 460 13,800 -2,100 Descending FlightAware
06:23AM -23.0060 -46.9180 159° South 393 452 12,300 -2,100 Descending FlightAware
06:23AM -23.0710 -46.8900 158° South 368 423 10,900 -1,740 Descending FlightAware
06:24AM -23.1340 -46.8640 159° South 309 356 10,000 -1,020 Descending FlightAware
06:25AM -23.1730 -46.8470 158° South 288 331 9,700 -1,080 Descending FlightAware
06:25AM -23.1980 -46.8370 160° South 286 329 9,100 -540 Descending FlightAware
06:26AM -23.2500 -46.8140 158° South 286 329 9,100 -1,500 Level FlightAware
06:26AM -23.2890 -46.7980 159° South 273 314 7,200 -2,520 Descending FlightAware
06:27AM -23.3260 -46.7820 158° South 269 310 6,700 -720 Descending FlightAware
06:27AM -23.3490 -46.7730 160° South 256 295 6,600 -180 Descending FlightAware
06:27AM -23.3700 -46.7620 154° Southeast 236 272 6,600 -240 Level FlightAware
06:28AM -23.3940 -46.7430 144° Southeast 218 251 6,400 -780 Descending FlightAware
06:28AM -23.4130 -46.7250 139° Southeast 205 236 5,900 -1,200 Descending FlightAware
06:29AM -23.4240 -46.7150 140° Southeast 191 220 5,600 -960 Descending FlightAware
06:29AM -23.4420 -46.6970 137° Southeast 172 198 5,200 -720 Descending FlightAware
06:29AM -23.4490 -46.6890 134° Southeast 170 196 5,100 -900 Descending FlightAware
06:30AM -23.4550 -46.6770 119° Southeast 167 192 4,800 -840 Descending FlightAware
06:30AM -23.4630 -46.6570 114° Southeast 164 189 4,500 -540 Descending FlightAware
06:30AM -23.4660 -46.6510 119° Southeast 164 189 4,500  Level FlightAware
06:31AM -23.4750 -46.6250 111° Southeast 168 193 4,500 -240 Level FlightAware
06:31AM -23.4670 -46.5900 76° East 172 198 4,200 -840 Descending FlightAware
06:32AM -23.4600 -46.5660 72° East 149 171 3,700 -900 Descending FlightAware
06:32AM -23.4560 -46.5500 75° East 146 168 3,400 -720 Descending FlightAware
06:33AM -23.4500 -46.5290 73° East 144 166 3,100 -780 Descending FlightAware
06:33AM -23.4450 -46.5100 74° East 148 170 2,700 -780 Descending FlightAware
06:34AM -23.4400 -46.4910 74° East 145 167 2,400 -660 Descending FlightAware
06:34AM -23.4350 -46.4720 74° East 90 104 -4,800 Descending FlightAware